createdAt,value
2022-11-05T00:00:59.900Z,8.7
2022-11-05T00:02:03.159Z,8.6
2022-11-05T00:04:06.896Z,8.5
2022-11-05T00:06:10.369Z,8.3
2022-11-05T00:08:13.999Z,8.1
2022-11-05T00:10:20.670Z,7.9
2022-11-05T00:12:24.293Z,8
2022-11-05T00:14:27.879Z,7.8
2022-11-05T00:16:31.530Z,7.9
2022-11-05T00:18:35.122Z,7.7
2022-11-05T00:20:38.723Z,7.7
2022-11-05T00:22:42.308Z,7.5
2022-11-05T00:24:49.029Z,7.5
2022-11-05T00:26:52.611Z,7.3
2022-11-05T00:28:56.204Z,7.4
2022-11-05T00:30:59.804Z,7.3
2022-11-05T00:33:03.401Z,7.1
2022-11-05T00:35:07.009Z,7.2
2022-11-05T00:39:17.292Z,6.9
2022-11-05T00:45:28.154Z,7.1
2022-11-05T00:49:35.380Z,7.1
2022-11-05T00:51:38.985Z,7
2022-11-05T00:53:45.672Z,6.9
2022-11-05T00:55:49.275Z,7
2022-11-05T00:57:52.944Z,6.9
2022-11-05T00:58:56.221Z,6.7
2022-11-05T01:00:59.862Z,6.6
2022-11-05T01:03:03.443Z,6.5
2022-11-05T01:05:07.112Z,6.8
2022-11-05T01:07:13.803Z,6.8
2022-11-05T01:09:17.399Z,6.7
2022-11-05T01:11:21.026Z,6.7
2022-11-05T01:13:24.652Z,6.7
2022-11-05T01:15:28.318Z,6.5
2022-11-05T01:17:31.905Z,6.5
2022-11-05T01:19:35.504Z,6.5
2022-11-05T01:21:42.204Z,6.5
2022-11-05T01:23:45.835Z,6.4
2022-11-05T01:25:49.471Z,6.4
2022-11-05T01:27:53.062Z,6.4
2022-11-05T01:29:56.685Z,6.5
2022-11-05T01:32:00.311Z,6.4
2022-11-05T01:34:03.937Z,6.4
2022-11-05T01:36:10.613Z,6.4
2022-11-05T01:38:14.248Z,6.4
2022-11-05T01:40:17.891Z,6.1
2022-11-05T01:44:25.115Z,6.4
2022-11-05T01:46:30.299Z,6.2
2022-11-05T01:48:33.887Z,6
2022-11-05T01:50:40.565Z,6.3
2022-11-05T01:57:06.397Z,6.2
2022-11-05T01:59:10.040Z,6.2
2022-11-05T02:01:13.638Z,6.2
2022-11-05T02:05:23.965Z,6.2
2022-11-05T02:07:27.599Z,6.1
2022-11-05T02:11:34.827Z,6.2
2022-11-05T02:15:42.102Z,6.1
2022-11-05T02:17:48.774Z,6.1
2022-11-05T02:19:52.394Z,6.3
2022-11-05T02:21:56.031Z,6
2022-11-05T02:23:59.655Z,6.1
2022-11-05T02:26:03.270Z,6
2022-11-05T02:28:06.917Z,6.1
2022-11-05T02:30:10.559Z,6.1
2022-11-05T02:32:17.245Z,6.2
2022-11-05T02:34:20.882Z,6.2
2022-11-05T02:36:24.489Z,6.2
2022-11-05T02:38:28.128Z,5.9
2022-11-05T02:40:31.750Z,6
2022-11-05T02:42:35.374Z,6
2022-11-05T02:44:38.999Z,6
2022-11-05T02:46:45.698Z,5.7
2022-11-05T02:48:49.347Z,5.8
2022-11-05T02:50:52.965Z,6
2022-11-05T02:51:56.313Z,6.1
2022-11-05T02:53:59.928Z,5.9
2022-11-05T02:56:03.581Z,5.8
2022-11-05T02:58:07.180Z,5.7
2022-11-05T03:00:13.868Z,6
2022-11-05T03:02:17.782Z,5.9
2022-11-05T03:04:21.186Z,6
2022-11-05T03:06:24.811Z,5.9
2022-11-05T03:14:42.362Z,5.5
2022-11-05T03:16:45.977Z,5.6
2022-11-05T03:18:49.718Z,5.4
2022-11-05T03:20:53.246Z,5.5
2022-11-05T03:22:56.881Z,5.5
2022-11-05T03:25:00.470Z,5.5
2022-11-05T03:31:14.436Z,5.6
2022-11-05T03:35:21.718Z,5.8
2022-11-05T03:37:25.356Z,5.6
2022-11-05T03:39:29.023Z,5.6
2022-11-05T03:41:32.624Z,5.7
2022-11-05T03:45:42.951Z,5.9
2022-11-05T03:47:47.213Z,5.8
2022-11-05T03:48:49.972Z,5.7
2022-11-05T03:50:53.607Z,5.8
2022-11-05T03:52:57.215Z,5.9
2022-11-05T03:55:00.857Z,5.6
2022-11-05T03:59:11.174Z,5.5
2022-11-05T04:01:14.798Z,5.6
2022-11-05T04:05:22.068Z,5.9
2022-11-05T04:07:25.719Z,5.8
2022-11-05T04:09:29.341Z,5.6
2022-11-05T04:13:39.654Z,5.8
2022-11-05T04:15:43.300Z,5.5
2022-11-05T04:17:46.939Z,5.6
2022-11-05T04:19:50.598Z,5.3
2022-11-05T04:32:15.454Z,5.2
2022-11-05T04:40:33.061Z,5.6
2022-11-05T04:42:36.700Z,5.6
2022-11-05T04:49:50.949Z,5.5
2022-11-05T04:54:01.279Z,5.5
2022-11-05T04:56:04.925Z,5.3
2022-11-05T05:00:12.188Z,5.3
2022-11-05T05:02:15.948Z,5.3
2022-11-05T05:06:23.120Z,5.5
2022-11-05T05:08:29.839Z,5.5
2022-11-05T05:10:33.427Z,5.3
2022-11-05T05:12:37.078Z,5.1
2022-11-05T05:14:40.748Z,5.4
2022-11-05T05:16:44.340Z,5.4
2022-11-05T05:18:48.028Z,5.2
2022-11-05T05:20:51.661Z,5.4
2022-11-05T05:22:58.367Z,5.3
2022-11-05T05:25:01.986Z,5.3
2022-11-05T05:27:05.635Z,5
2022-11-05T05:29:09.252Z,5
2022-11-05T05:31:12.982Z,5
2022-11-05T05:33:16.576Z,5.2
2022-11-05T05:41:34.166Z,5.2
2022-11-05T05:46:02.353Z,5.4
2022-11-05T05:50:12.682Z,5.4
2022-11-05T05:54:19.929Z,5.6
2022-11-05T05:56:23.547Z,5.3
2022-11-05T05:58:27.230Z,5.5
2022-11-05T06:00:30.881Z,5.2
2022-11-05T06:02:34.677Z,5.3
2022-11-05T06:04:41.175Z,5.3
2022-11-05T06:06:44.884Z,5.5
2022-11-05T06:08:48.450Z,5.2
2022-11-05T06:17:02.993Z,5.2
2022-11-05T06:19:09.738Z,5.3
2022-11-05T06:21:13.358Z,5.4
2022-11-05T06:23:16.983Z,5.5
2022-11-05T06:25:20.638Z,5.2
2022-11-05T06:27:24.248Z,5.4
2022-11-05T06:29:27.889Z,5.1
2022-11-05T06:31:31.492Z,5.3
2022-11-05T06:33:38.221Z,5.1
2022-11-05T06:35:41.818Z,5.3
2022-11-05T06:37:45.490Z,5.2
2022-11-05T06:38:48.829Z,5.2
2022-11-05T06:40:52.444Z,5.2
2022-11-05T06:42:56.114Z,5.3
2022-11-05T06:47:06.484Z,5.3
2022-11-05T06:49:10.120Z,5.3
2022-11-05T06:51:13.726Z,5.3
2022-11-05T06:55:21.024Z,5.4
2022-11-05T06:59:28.244Z,5.5
2022-11-05T07:01:35.166Z,5.6
2022-11-05T07:05:42.262Z,5.6
2022-11-05T07:07:45.888Z,5.6
2022-11-05T07:09:49.567Z,5.7
2022-11-05T07:11:53.144Z,5.8
2022-11-05T07:13:56.835Z,5.9
2022-11-05T07:16:03.517Z,6
2022-11-05T07:18:07.140Z,5.9
2022-11-05T07:20:10.777Z,6
2022-11-05T07:22:14.412Z,6.1
2022-11-05T07:24:18.025Z,6.5
2022-11-05T07:26:21.648Z,7.2
2022-11-05T07:28:25.307Z,7.1
2022-11-05T07:30:31.994Z,7.8
2022-11-05T07:32:35.618Z,8.5
2022-11-05T07:34:39.289Z,9.6
2022-11-05T07:35:42.652Z,10
2022-11-05T07:37:46.279Z,10.2
2022-11-05T07:39:49.933Z,10.5
2022-11-05T07:41:55.127Z,10.9
2022-11-05T07:44:01.769Z,11.4
2022-11-05T07:50:12.671Z,12
2022-11-05T07:52:16.284Z,12.3
2022-11-05T07:54:19.902Z,12.4
2022-11-05T07:58:30.216Z,13.5
2022-11-05T08:00:33.937Z,13.5
2022-11-05T08:04:41.070Z,13.8
2022-11-05T08:06:44.692Z,13.1
2022-11-05T08:08:48.308Z,13.2
2022-11-05T08:10:51.905Z,13.7
2022-11-05T08:12:58.574Z,11.8
2022-11-05T08:15:02.212Z,11.3
2022-11-05T08:17:05.761Z,10.6
2022-11-05T08:19:09.393Z,10.2
2022-11-05T08:21:12.994Z,10.1
2022-11-05T08:25:20.173Z,11.3
2022-11-05T08:27:26.792Z,11.4
2022-11-05T08:29:30.402Z,11.5
2022-11-05T08:31:34.022Z,11
2022-11-05T08:32:37.365Z,12.1
2022-11-05T08:34:40.941Z,13
2022-11-05T08:40:54.700Z,15.4
2022-11-05T08:42:58.332Z,15.3
2022-11-05T08:45:01.912Z,14.5
2022-11-05T08:47:05.501Z,13.7
2022-11-05T08:49:09.101Z,12.5
2022-11-05T08:51:12.649Z,13.3
2022-11-05T08:53:16.343Z,12.5
2022-11-05T08:55:22.865Z,13.8
2022-11-05T08:57:26.475Z,13.5
2022-11-05T08:59:30.021Z,14
2022-11-05T09:01:33.757Z,14.8
2022-11-05T09:03:37.189Z,15.8
2022-11-05T09:05:40.728Z,15.8
2022-11-05T09:07:44.275Z,15.8
2022-11-05T09:09:50.906Z,16.4
2022-11-05T09:12:11.672Z,16.9
2022-11-05T09:13:58.044Z,16.7
2022-11-05T09:16:01.580Z,17.5
2022-11-05T09:18:05.111Z,17.3
2022-11-05T09:20:08.678Z,17.2
2022-11-05T09:22:12.211Z,16.9
2022-11-05T09:24:18.838Z,16.9
2022-11-05T09:26:22.366Z,16.9
2022-11-05T09:28:25.884Z,16.2
2022-11-05T09:30:50.017Z,15.6
2022-11-05T09:32:53.549Z,15.5
2022-11-05T09:34:57.033Z,15.8
2022-11-05T09:37:03.680Z,15.9
2022-11-05T09:39:07.170Z,15.8
2022-11-05T09:41:10.677Z,15.4
2022-11-05T09:43:14.291Z,15.7
2022-11-05T09:45:17.734Z,15.7
2022-11-05T09:47:21.235Z,15.3
2022-11-05T09:49:24.738Z,14.8
2022-11-05T09:51:31.335Z,14.6
2022-11-05T09:55:38.379Z,14.1
2022-11-05T09:57:41.813Z,13.7
2022-11-05T09:59:45.285Z,13.7
2022-11-05T10:01:48.963Z,14
2022-11-05T10:03:52.292Z,14.2
2022-11-05T10:05:58.860Z,13.9
2022-11-05T10:08:02.325Z,13.8
2022-11-05T10:10:05.815Z,13.5
2022-11-05T10:12:09.273Z,13.6
2022-11-05T10:14:12.730Z,13.6
2022-11-05T10:16:16.192Z,13.6
2022-11-05T10:18:19.607Z,14.1
2022-11-05T10:20:26.172Z,14.6
2022-11-05T10:22:29.638Z,14.6
2022-11-05T10:24:33.059Z,14
2022-11-05T10:25:36.352Z,14.3
2022-11-05T10:27:39.792Z,14.4
2022-11-05T10:29:43.257Z,14.3
2022-11-05T10:31:46.708Z,14
2022-11-05T10:33:53.209Z,13.5
2022-11-05T10:35:56.653Z,13.6
2022-11-05T10:38:00.097Z,13.9
2022-11-05T10:40:03.557Z,13.6
2022-11-05T10:42:06.943Z,13.4
2022-11-05T10:44:13.558Z,13.3
2022-11-05T10:46:14.018Z,13.4
2022-11-05T10:48:20.370Z,12.8
2022-11-05T10:50:23.800Z,12.9
2022-11-05T10:52:27.214Z,12.8
2022-11-05T10:54:30.700Z,12.9
2022-11-05T10:56:34.150Z,12.9
2022-11-05T10:58:37.608Z,12.8
2022-11-05T11:00:41.168Z,12.6
2022-11-05T11:02:47.660Z,12.5
2022-11-05T11:04:51.103Z,12.5
2022-11-05T11:11:01.499Z,12.1
2022-11-05T11:13:05.004Z,12
2022-11-05T11:15:08.471Z,12.1
2022-11-05T11:17:15.099Z,12.1
2022-11-05T11:19:18.566Z,12.1
2022-11-05T11:21:22.080Z,12.2
2022-11-05T11:24:33.385Z,12.1
2022-11-05T11:26:32.409Z,12
2022-11-05T11:28:36.506Z,12.1
2022-11-05T11:30:43.252Z,12
2022-11-05T11:32:46.644Z,12
2022-11-05T11:34:50.124Z,12.1
2022-11-05T11:36:53.603Z,12.1
2022-11-05T11:41:00.655Z,12
2022-11-05T11:43:04.135Z,11.9
2022-11-05T11:45:10.733Z,11.7
2022-11-05T11:47:14.239Z,11.7
2022-11-05T11:51:21.288Z,11.9
2022-11-05T11:53:24.858Z,12
2022-11-05T11:55:28.382Z,12
2022-11-05T11:57:31.910Z,11.9
2022-11-05T12:00:07.290Z,12.1
2022-11-05T12:01:42.100Z,12.1
2022-11-05T12:03:45.529Z,12.1
2022-11-05T12:05:49.089Z,12.1
2022-11-05T12:07:52.614Z,12.1
2022-11-05T12:09:56.131Z,12
2022-11-05T12:11:59.652Z,12.1
2022-11-05T12:14:06.292Z,12
2022-11-05T12:16:09.802Z,12
2022-11-05T12:18:13.322Z,11.9
2022-11-05T12:19:16.653Z,11.7
2022-11-05T12:21:34.869Z,11.7
2022-11-05T12:23:23.678Z,11.8
2022-11-05T12:25:27.227Z,11.7
2022-11-05T12:27:33.840Z,11.6
2022-11-05T12:29:37.343Z,11.6
2022-11-05T12:31:40.911Z,11.7
2022-11-05T12:33:44.451Z,11.6
2022-11-05T12:35:49.992Z,11.6
2022-11-05T12:37:51.531Z,11.7
2022-11-05T12:39:55.030Z,11.6
2022-11-05T12:42:01.666Z,11.5
2022-11-05T12:44:05.200Z,11.5
2022-11-05T12:46:08.737Z,11.5
2022-11-05T12:48:12.262Z,11.6
2022-11-05T12:50:15.813Z,11.6
2022-11-05T12:52:19.346Z,11.7
2022-11-05T12:54:22.894Z,11.7
2022-11-05T12:56:29.515Z,11.7
2022-11-05T12:58:33.086Z,11.7
2022-11-05T13:00:36.588Z,11.8
2022-11-05T13:02:40.278Z,11.8
2022-11-05T13:04:43.682Z,11.7
2022-11-05T13:08:50.761Z,11.8
2022-11-05T13:10:57.345Z,11.7
2022-11-05T13:13:00.887Z,11.8
2022-11-05T13:17:28.799Z,11.5
2022-11-05T13:19:32.338Z,11.6
2022-11-05T13:21:35.875Z,11.5
2022-11-05T13:23:42.483Z,11.5
2022-11-05T13:25:45.992Z,11.6
2022-11-05T13:27:49.529Z,11.6
2022-11-05T13:29:53.094Z,11.6
2022-11-05T13:31:56.635Z,11.5
2022-11-05T13:34:00.161Z,11.5
2022-11-05T13:36:03.724Z,11.5
2022-11-05T13:38:10.317Z,11.4
2022-11-05T13:40:15.444Z,11.5
2022-11-05T13:42:18.898Z,11.4
2022-11-05T13:44:22.482Z,11.3
2022-11-05T13:46:26.166Z,11.3
2022-11-05T13:48:29.575Z,11.2
2022-11-05T13:50:33.139Z,11.2
2022-11-05T13:52:39.766Z,11.1
2022-11-05T13:54:43.285Z,11.2
2022-11-05T13:56:46.842Z,11.1
2022-11-05T13:58:50.379Z,11.2
2022-11-05T14:00:53.984Z,11.1
2022-11-05T14:02:57.501Z,11.1
2022-11-05T14:05:01.832Z,11.1
2022-11-05T14:07:07.702Z,11.1
2022-11-05T14:09:11.245Z,11.1
2022-11-05T14:11:14.786Z,11
2022-11-05T14:12:18.108Z,11.1
2022-11-05T14:14:21.671Z,11.1
2022-11-05T14:16:25.249Z,11.1
2022-11-05T14:18:28.802Z,11.1
2022-11-05T14:20:35.413Z,11
2022-11-05T14:22:38.994Z,11
2022-11-05T14:24:42.531Z,11
2022-11-05T14:26:46.099Z,11
2022-11-05T14:28:49.640Z,11
2022-11-05T14:30:53.214Z,11
2022-11-05T14:35:03.382Z,11.1
2022-11-05T14:37:06.936Z,11.1
2022-11-05T14:39:10.503Z,11.1
2022-11-05T14:41:14.066Z,11.1
2022-11-05T14:43:17.632Z,11.1
2022-11-05T14:45:21.147Z,11.1
2022-11-05T14:49:31.355Z,11.1
2022-11-05T14:51:34.877Z,11.1
2022-11-05T14:53:38.445Z,11
2022-11-05T14:55:42.004Z,11
2022-11-05T14:57:45.574Z,11
2022-11-05T14:59:49.126Z,10.9
2022-11-05T15:01:52.858Z,10.9
2022-11-05T15:03:59.387Z,10.8
2022-11-05T15:06:02.862Z,10.8
2022-11-05T15:08:06.448Z,10.8
2022-11-05T15:09:09.734Z,10.7
2022-11-05T15:11:13.284Z,10.7
2022-11-05T15:13:16.905Z,10.7
2022-11-05T15:15:21.933Z,10.6
2022-11-05T15:19:30.663Z,10.6
2022-11-05T15:21:34.221Z,10.6
2022-11-05T15:23:37.747Z,10.6
2022-11-05T15:25:41.329Z,10.6
2022-11-05T15:27:44.867Z,10.6
2022-11-05T15:29:48.427Z,10.6
2022-11-05T15:31:55.103Z,10.5
2022-11-05T15:33:58.646Z,10.5
2022-11-05T15:36:02.250Z,10.5
2022-11-05T15:38:05.797Z,10.5
2022-11-05T15:40:09.390Z,10.5
2022-11-05T15:42:12.963Z,10.6
2022-11-05T15:46:23.219Z,10.5
2022-11-05T15:56:41.064Z,10.5
2022-11-05T15:58:44.629Z,10.4
2022-11-05T16:00:51.296Z,10.4
2022-11-05T16:02:54.845Z,10.4
2022-11-05T16:04:58.499Z,10.4
2022-11-05T16:06:01.818Z,10.4
2022-11-05T16:08:05.323Z,10.4
2022-11-05T16:10:12.788Z,10.4
2022-11-05T16:12:12.466Z,10.4
2022-11-05T16:14:19.111Z,10.4
2022-11-05T16:16:22.709Z,10.4
2022-11-05T16:18:26.286Z,10.4
2022-11-05T16:20:29.852Z,10.3
2022-11-05T16:22:33.400Z,10.3
2022-11-05T16:27:01.928Z,10.4
2022-11-05T16:28:47.280Z,10.3
2022-11-05T16:34:57.999Z,10.3
2022-11-05T16:37:01.544Z,10.4
2022-11-05T16:39:05.128Z,10.3
2022-11-05T16:41:08.712Z,10.3
2022-11-05T16:45:18.901Z,10.3
2022-11-05T16:47:22.479Z,10.3
2022-11-05T16:49:26.050Z,10.4
2022-11-05T16:51:29.610Z,10.4
2022-11-05T16:53:33.199Z,10.4
2022-11-05T16:55:36.722Z,10.4
2022-11-05T16:57:43.388Z,10.4
2022-11-05T16:59:46.961Z,10.4
2022-11-05T17:01:54.673Z,10.4
2022-11-05T17:06:18.346Z,10.3
2022-11-05T17:08:21.878Z,10.3
2022-11-05T17:10:28.540Z,10.3
2022-11-05T17:12:32.085Z,10.3
2022-11-05T17:14:35.673Z,10.3
2022-11-05T17:16:39.230Z,10.3
2022-11-05T17:18:42.782Z,10.3
2022-11-05T17:20:46.335Z,10.4
2022-11-05T17:35:14.361Z,10.2
2022-11-05T17:39:30.329Z,10.2
2022-11-05T17:45:35.321Z,10.1
2022-11-05T17:47:38.867Z,10.1
2022-11-05T17:49:42.407Z,10.1
2022-11-05T17:51:45.994Z,10.1
2022-11-05T17:57:59.744Z,10.2
2022-11-05T17:59:03.081Z,10.2
2022-11-05T18:01:06.782Z,10.1
2022-11-05T18:03:10.516Z,10.2
2022-11-05T18:05:13.794Z,10.2
2022-11-05T18:07:20.564Z,10.1
2022-11-05T18:09:24.022Z,10.1
2022-11-05T18:11:27.625Z,10.1
2022-11-05T18:13:31.139Z,10.2
2022-11-05T18:15:34.729Z,10.2
2022-11-05T18:17:38.306Z,10.2
2022-11-05T18:19:41.874Z,10.3
2022-11-05T18:21:48.515Z,10.2
2022-11-05T18:23:52.130Z,10.2
2022-11-05T18:25:55.705Z,10.2
2022-11-05T18:27:59.251Z,10.2
2022-11-05T18:30:02.833Z,10.3
2022-11-05T18:32:06.413Z,10.3
2022-11-05T18:34:10.006Z,10.2
2022-11-05T18:36:16.645Z,10.2
2022-11-05T18:38:20.220Z,10.3
2022-11-05T18:40:23.784Z,10.3
2022-11-05T18:42:27.357Z,10.2
2022-11-05T18:44:34.933Z,10.3
2022-11-05T18:46:57.167Z,10.3
2022-11-05T18:48:38.066Z,10.4
2022-11-05T18:50:44.752Z,10.3
2022-11-05T18:52:48.269Z,10.4
2022-11-05T18:54:51.839Z,10.3
2022-11-05T18:55:55.136Z,10.3
2022-11-05T18:57:58.724Z,10.3
2022-11-05T19:00:02.343Z,10.3
2022-11-05T19:02:06.071Z,10.3
2022-11-05T19:04:12.558Z,10.4
2022-11-05T19:06:16.106Z,10.3
2022-11-05T19:08:19.687Z,10.4
2022-11-05T19:10:23.244Z,10.3
2022-11-05T19:12:26.833Z,10.3
2022-11-05T19:14:30.447Z,10.4
2022-11-05T19:16:33.999Z,10.3
2022-11-05T19:18:40.659Z,10.3
2022-11-05T19:20:44.210Z,10.3
2022-11-05T19:22:47.813Z,10.2
2022-11-05T19:24:51.368Z,10.3
2022-11-05T19:26:54.925Z,10.3
2022-11-05T19:28:58.521Z,10.4
2022-11-05T19:33:08.752Z,10.4
2022-11-05T19:37:17.429Z,10.3
2022-11-05T19:39:20.972Z,10.3
2022-11-05T19:41:24.548Z,10.3
2022-11-05T19:43:28.138Z,10.3
2022-11-05T19:45:44.487Z,10.4
2022-11-05T19:47:38.383Z,10.2
2022-11-05T19:51:45.539Z,10.3
2022-11-05T19:52:48.859Z,10.4
2022-11-05T19:54:52.443Z,10.4
2022-11-05T19:56:56.036Z,10.4
2022-11-05T19:58:59.588Z,10.3
2022-11-05T20:01:06.354Z,10.3
2022-11-05T20:03:09.865Z,10.4
2022-11-05T20:05:13.381Z,10.4
2022-11-05T20:07:16.958Z,10.3
2022-11-05T20:09:22.541Z,10.3
2022-11-05T20:13:27.699Z,10.3
2022-11-05T20:15:34.333Z,10.4
2022-11-05T20:17:37.934Z,10.3
2022-11-05T20:19:41.498Z,10.3
2022-11-05T20:21:45.080Z,10.4
2022-11-05T20:23:48.664Z,10.4
2022-11-05T20:27:55.806Z,10.3
2022-11-05T20:30:02.492Z,10.3
2022-11-05T20:32:06.063Z,10.4
2022-11-05T20:34:09.608Z,10.3
2022-11-05T20:36:13.201Z,10.3
2022-11-05T20:38:16.782Z,10.4
2022-11-05T20:40:20.331Z,10.3
2022-11-05T20:42:23.923Z,10.4
2022-11-05T20:46:34.117Z,10.4
2022-11-05T20:48:37.703Z,10.3
2022-11-05T20:51:01.897Z,10.3
2022-11-05T20:53:05.460Z,10.3
2022-11-05T20:55:09.038Z,10.3
2022-11-05T20:57:15.659Z,10.3
2022-11-05T20:59:19.259Z,10.3
2022-11-05T21:03:26.392Z,10.2
2022-11-05T21:05:35.195Z,10.3
2022-11-05T21:09:37.041Z,10.2
2022-11-05T21:13:47.297Z,10.2
2022-11-05T21:15:50.879Z,10.1
2022-11-05T21:17:54.417Z,10.1
2022-11-05T21:22:01.588Z,10.2
2022-11-05T21:24:05.159Z,10.2
2022-11-05T21:26:11.770Z,10.1
2022-11-05T21:28:15.756Z,10.1
2022-11-05T21:30:18.941Z,10.1
2022-11-05T21:32:22.519Z,10.2
2022-11-05T21:34:26.081Z,10.2
2022-11-05T21:36:29.643Z,10.2
2022-11-05T21:38:33.202Z,10.2
2022-11-05T21:40:39.859Z,10
2022-11-05T21:42:43.460Z,10.1
2022-11-05T21:44:47.020Z,10.1
2022-11-05T21:45:50.360Z,10
2022-11-05T21:47:53.941Z,10.1
2022-11-05T21:49:57.474Z,10.1
2022-11-05T21:52:01.076Z,10
2022-11-05T21:54:07.747Z,9.9
2022-11-05T21:56:11.296Z,10
2022-11-05T21:58:15.180Z,10
2022-11-05T22:00:18.490Z,10
2022-11-05T22:02:22.328Z,10
2022-11-05T22:04:25.639Z,9.9
2022-11-05T22:06:29.227Z,9.9
2022-11-05T22:08:35.830Z,9.9
2022-11-05T22:10:39.439Z,9.8
2022-11-05T22:12:43.038Z,9.9
2022-11-05T22:14:46.593Z,9.8
2022-11-05T22:16:50.176Z,9.7
2022-11-05T22:18:53.742Z,9.7
2022-11-05T22:20:57.303Z,9.8
2022-11-05T22:23:07.422Z,9.7
2022-11-05T22:25:07.573Z,9.7
2022-11-05T22:27:11.144Z,9.7
2022-11-05T22:29:14.731Z,9.7
2022-11-05T22:31:18.271Z,9.7
2022-11-05T22:33:21.879Z,9.8
2022-11-05T22:35:25.433Z,9.7
2022-11-05T22:39:35.677Z,9.7
2022-11-05T22:41:39.384Z,9.7
2022-11-05T22:42:42.651Z,9.7
2022-11-05T22:44:46.188Z,9.6
2022-11-05T22:46:49.771Z,9.7
2022-11-05T22:50:59.976Z,9.7
2022-11-05T22:55:07.119Z,9.7
2022-11-05T22:57:10.714Z,9.7
2022-11-05T23:05:28.137Z,9.7
2022-11-05T23:11:38.888Z,9.6
2022-11-05T23:15:46.058Z,9.6
2022-11-05T23:17:49.688Z,9.7
2022-11-05T23:19:56.321Z,9.5
2022-11-05T23:21:59.934Z,9.5
2022-11-05T23:24:03.486Z,9.5
2022-11-05T23:26:07.086Z,9.4
2022-11-05T23:28:10.994Z,9.5
2022-11-05T23:32:17.850Z,9.4
2022-11-05T23:34:24.479Z,9.5
2022-11-05T23:36:28.084Z,9.4
2022-11-05T23:38:31.678Z,9.5
2022-11-05T23:39:41.239Z,9.4
2022-11-05T23:41:38.574Z,9.4
2022-11-05T23:43:42.145Z,9.4
2022-11-05T23:45:45.749Z,9.4
2022-11-05T23:47:52.418Z,9.4
2022-11-05T23:49:56.003Z,9.4
2022-11-05T23:51:59.596Z,9.5
2022-11-05T23:54:03.187Z,9.5
2022-11-05T23:56:06.776Z,9.5
2022-11-05T23:58:10.571Z,9.5
